?

Log in

No account? Create an account
an124

mil_avia


Авиация & Aviation

Гражданские и военные / CIV and MIL


Previous Entry Share Next Entry
"Аэрофлот" не смог
an124
mil_avia
Погода у нас не айс. С ночи льёт дождь, не переставая. В таких условиях работает Храброво .

METAR : UMKK 180930Z 34011G19MPS 310V010 6000 -SHRA SCT009 BKN019CB 12/11 Q0999 R06/290253 NOSIG RMK QFE748/0998

AEROFLOT Airbus A319 VQ-BSU | SVO-KGD | кружил в зоне ожидания, потом сделал попытку приземлиться и ушёл на второй круг , далее на Минск на запасной


Одновременно с ним заходил . И  зашёл (успешно) LOT697 (Bombardier Dash 8 Q400 SP-EQK)

Recent Posts from This Journal



  • 1
Ну и польского экипажа может были минимумы меньше, а в аэрофлоте студентов набрали по объявлению :-)

Кто-то на экскурсию съездил на шарика )))

Аэрофлот вообще чуть что - сразу улетают

  • 1